Pagina principale
METAR-TAF:

METAR-TAF

Aeroporti :

Piattaforma petrolifera

Hoorn-a, Paesi Bassi

latitudine: 52-55-05N, longitudine: 4-09-01E, altezza: 41 m

Osservazione

Il bollettino è stato emesso 25 minuti fa, alle 08:25 UTC
Vento 13 kt da sud/sud-ovest
Temperature 8°C
Umidità 71%
Pressione 1005 hPa
Visibilità 10 km o più
Poco nuvoloso ad un'altezza di 1900 ft

METAR: EHQE 110825Z AUTO 20013KT 9999 FEW019 08/03 Q1005

Ora: 09:50 (08:50 UTC)


TAF: mancante

Osservazioni e previsioni meteorologiche di più di 4000 aeroporti (messaggi METAR e TAF).

Le stazioni disponibili sono rappresentate dai dischi gialli e rossi sulla carta.

Puntare il mouse per vedere il nome della stazione.

Clicca sopra per visualizzare le osservazioni e previsioni meteorologiche.

Per cambiare la mappa : fare clic sui pulsanti verdi con una croce nera per ingrandire, il pulsante verde con un trattino per diminuire, o sulla freccia verde per le mappe adiacenti.


METAR-TAF: